Time;durP1;ratioP1;P1;durP2;ratioP2;P2;SDS_P1;SDS_P2;PMS_P1;PMS_P2;Temp;Humidity;BMP_temperature;BMP_pressure;BME280_temperature;BME280_humidity;BME280_pressure;Samples;Min_cycle;Max_cycle;Signal;HPM_P1;HPM_P2
2021/11/13 00:02:00;;;;;;;11.57;3.78;;;;;;;6.51;86.62;100549.50;5023312;28;20030;-69
2021/11/13 00:04:25;;;;;;;2.88;1.95;;;;;;;6.68;85.95;100547.94;5023303;28;20022;-71
2021/11/13 00:06:51;;;;;;;10.02;4.40;;;;;;;6.56;86.19;100542.69;5023287;28;20041;-70
2021/11/13 00:09:17;;;;;;;5.15;2.95;;;;;;;6.62;86.84;100539.28;5022893;28;20022;-72
2021/11/13 00:11:42;;;;;;;5.90;2.78;;;;;;;6.49;87.07;100546.03;5023088;28;20029;-71
2021/11/13 00:14:13;;;;;;;7.47;3.45;;;;;;;6.55;86.36;100538.38;5023076;28;20030;-71
2021/11/13 00:16:38;;;;;;;6.70;2.80;;;;;;;6.64;85.89;100545.34;5023022;28;20363;-70
2021/11/13 00:19:04;;;;;;;6.60;3.65;;;;;;;6.49;86.69;100546.03;5023182;28;20540;-70
2021/11/13 00:21:29;;;;;;;7.93;3.85;;;;;;;6.52;86.67;100552.09;5022876;28;20481;-70
2021/11/13 00:23:55;;;;;;;7.85;3.03;;;;;;;6.38;87.23;100543.34;5022732;28;20017;-70
2021/11/13 00:26:22;;;;;;;5.60;2.55;;;;;;;6.54;86.65;100544.38;5022990;28;20034;-71
2021/11/13 00:28:48;;;;;;;5.68;1.95;;;;;;;6.60;86.30;100539.25;5022822;28;20046;-72
2021/11/13 00:31:13;;;;;;;8.55;3.50;;;;;;;6.33;86.90;100540.69;5022837;28;20420;-71
2021/11/13 00:33:38;;;;;;;5.38;2.30;;;;;;;6.28;87.40;100532.03;5023091;28;20076;-71
2021/11/13 00:36:04;;;;;;;5.20;3.10;;;;;;;6.21;87.87;100536.28;5022664;28;20100;-71
2021/11/13 00:38:30;;;;;;;8.27;3.63;;;;;;;6.23;87.74;100538.88;5022794;28;20084;-71
2021/11/13 00:40:55;;;;;;;8.75;4.38;;;;;;;6.28;87.74;100532.03;5021406;28;20037;-72
2021/11/13 00:43:21;;;;;;;4.15;2.13;;;;;;;6.07;88.73;100525.81;5022675;28;20029;-73
2021/11/13 00:45:47;;;;;;;12.30;4.47;;;;;;;5.98;89.52;100538.53;5022693;28;20338;-70
2021/11/13 00:48:13;;;;;;;2.95;1.90;;;;;;;6.44;88.26;100541.69;5023063;28;20026;-72
2021/11/13 00:50:40;;;;;;;1.20;1.10;;;;;;;6.35;87.65;100532.97;5025824;28;20033;-72
2021/11/13 00:53:05;;;;;;;19.30;6.22;;;;;;;6.11;88.86;100525.00;5026214;28;20044;-69
2021/11/13 00:55:31;;;;;;;3.10;2.25;;;;;;;6.15;89.08;100524.16;5026314;28;20025;-70
2021/11/13 00:57:57;;;;;;;5.68;2.58;;;;;;;6.05;89.66;100518.03;5026215;28;20068;-71
2021/11/13 01:00:23;;;;;;;9.60;4.25;;;;;;;6.10;89.67;100520.69;5026282;28;20109;-71
2021/11/13 01:02:49;;;;;;;10.85;5.30;;;;;;;5.97;90.11;100519.66;5026444;28;20022;-71
2021/11/13 01:05:15;;;;;;;4.63;2.47;;;;;;;6.28;89.69;100519.16;5026048;28;20026;-71
2021/11/13 01:07:41;;;;;;;7.93;4.53;;;;;;;6.06;89.64;100518.91;5026019;28;20072;-72
2021/11/13 01:10:08;;;;;;;4.85;2.70;;;;;;;6.20;90.14;100513.91;5025647;28;20054;-72
2021/11/13 01:12:34;;;;;;;9.18;4.97;;;;;;;6.14;89.22;100512.13;5025933;28;20030;-71
2021/11/13 01:15:00;;;;;;;10.77;3.03;;;;;;;6.15;89.70;100516.44;5025942;28;20034;-71
2021/11/13 01:17:25;;;;;;;11.93;5.07;;;;;;;6.05;89.90;100522.34;5024421;28;20076;-70
2021/11/13 01:19:51;;;;;;;10.15;4.68;;;;;;;5.94;90.88;100520.44;5025621;28;20366;-70
2021/11/13 01:22:17;;;;;;;6.07;2.88;;;;;;;6.23;89.99;100510.53;5025803;28;20075;-71
2021/11/13 01:24:43;;;;;;;8.38;4.20;;;;;;;6.00;90.32;100521.38;5025297;28;20026;-71
2021/11/13 01:27:09;;;;;;;8.07;3.53;;;;;;;6.10;90.41;100517.25;5025380;28;20030;-70
2021/11/13 01:29:34;;;;;;;9.65;2.95;;;;;;;6.14;90.37;100511.25;5025291;28;20053;-70
2021/11/13 01:32:00;;;;;;;10.75;4.28;;;;;;;6.06;90.37;100501.75;5025483;28;20037;-71
2021/11/13 01:34:26;;;;;;;4.63;2.35;;;;;;;6.24;89.71;100519.97;5025680;28;20029;-69
2021/11/13 01:36:51;;;;;;;8.43;4.47;;;;;;;6.10;90.26;100506.94;5025408;28;20029;-69
2021/11/13 01:39:18;;;;;;;10.55;4.70;;;;;;;6.02;90.76;100509.38;5025328;28;20109;-70
2021/11/13 01:41:43;;;;;;;12.23;5.40;;;;;;;6.12;90.22;100503.50;5025425;28;20022;-71
2021/11/13 01:44:09;;;;;;;8.82;3.75;;;;;;;6.02;90.72;100519.69;5024999;28;20053;-70
2021/11/13 01:46:37;;;;;;;5.75;3.33;;;;;;;6.08;91.06;100517.22;5025161;28;20028;-70
2021/11/13 01:49:03;;;;;;;3.47;2.60;;;;;;;6.26;90.14;100532.03;5025149;28;20026;-70
2021/11/13 01:51:32;;;;;;;1.58;1.15;;;;;;;6.50;89.15;100516.81;5024908;28;20522;-72
2021/11/13 01:54:05;;;;;;;3.38;2.15;;;;;;;6.38;88.71;100508.09;5024812;28;20041;-70
2021/11/13 01:56:31;;;;;;;3.88;2.30;;;;;;;6.22;89.81;100519.97;5025076;28;20033;-70
2021/11/13 01:58:59;;;;;;;8.52;4.93;;;;;;;6.19;90.18;100518.22;5024462;28;20021;-70
2021/11/13 02:01:25;;;;;;;3.35;2.38;;;;;;;6.12;90.85;100516.41;5023670;28;20013;-71
2021/11/13 02:03:52;;;;;;;4.65;1.77;;;;;;;6.29;90.19;100508.00;5023642;28;20690;-71
2021/11/13 02:06:19;;;;;;;6.95;3.33;;;;;;;6.32;89.54;100502.88;5023814;28;20037;-72
2021/11/13 02:08:45;;;;;;;6.88;4.18;;;;;;;6.15;89.88;100505.28;5024638;28;20487;-70
2021/11/13 02:11:12;;;;;;;6.35;3.35;;;;;;;6.03;90.86;100516.25;5024874;28;20049;-71
2021/11/13 02:13:38;;;;;;;9.48;3.88;;;;;;;6.09;90.64;100513.78;5024683;28;20036;-71
2021/11/13 02:16:04;;;;;;;7.95;4.53;;;;;;;6.03;91.04;100509.41;5024486;28;20323;-70
2021/11/13 02:18:30;;;;;;;4.40;2.67;;;;;;;6.04;90.82;100507.66;5024876;28;20014;-71
2021/11/13 02:20:55;;;;;;;8.52;4.32;;;;;;;5.95;91.28;100513.59;5024380;28;20057;-69
2021/11/13 02:23:23;;;;;;;3.85;2.38;;;;;;;6.02;91.28;100499.09;5024346;28;20026;-69
2021/11/13 02:25:51;;;;;;;5.40;2.97;;;;;;;6.02;91.12;100499.09;5024830;28;20033;-70
2021/11/13 02:28:22;;;;;;;6.97;3.60;;;;;;;6.03;91.04;100521.41;5024189;28;20056;-70
2021/11/13 02:30:49;;;;;;;4.63;1.83;;;;;;;6.27;89.77;100495.09;5024376;28;20116;-70
2021/11/13 02:33:16;;;;;;;5.82;3.40;;;;;;;6.04;91.00;100507.66;5024499;28;20022;-70
2021/11/13 02:35:43;;;;;;;5.80;3.78;;;;;;;5.95;91.49;100511.03;5024175;28;20030;-70
2021/11/13 02:38:20;;;;;;;7.95;3.22;;;;;;;6.09;90.73;100507.78;5024303;28;20092;-70
2021/11/13 02:40:51;;;;;;;9.45;3.50;;;;;;;5.92;91.56;100513.56;5024286;28;20494;-70
2021/11/13 02:43:18;;;;;;;3.30;1.20;;;;;;;6.27;90.20;100497.69;5024057;28;20513;-70
2021/11/13 02:45:44;;;;;;;5.68;2.83;;;;;;;6.12;90.78;100498.34;5024123;28;20733;-70
2021/11/13 02:48:11;;;;;;;7.30;3.70;;;;;;;6.06;91.21;100499.16;5024169;28;20025;-70
2021/11/13 02:50:38;;;;;;;5.93;3.30;;;;;;;6.14;90.46;100498.38;5024011;28;20093;-69
2021/11/13 02:53:12;;;;;;;5.25;3.60;;;;;;;6.06;91.15;100493.13;5024014;28;20022;-70
2021/11/13 02:55:37;;;;;;;5.60;3.60;;;;;;;6.14;90.76;100514.72;5024036;28;20080;-70
2021/11/13 02:58:02;;;;;;;5.10;3.05;;;;;;;6.14;90.52;100501.81;5023895;28;20085;-70
2021/11/13 03:00:29;;;;;;;10.75;4.13;;;;;;;6.08;91.13;100504.34;5023853;28;20041;-69
2021/11/13 03:02:54;;;;;;;5.80;3.72;;;;;;;6.06;91.69;100506.03;5023981;28;20018;-69
2021/11/13 03:05:27;;;;;;;7.53;4.53;;;;;;;6.12;91.46;100515.56;5023644;28;20022;-69
2021/11/13 03:07:55;;;;;;;5.85;3.78;;;;;;;6.11;91.39;100494.06;5023645;28;20061;-70
2021/11/13 03:10:23;;;;;;;4.70;3.10;;;;;;;6.27;90.47;100495.09;5022375;28;20171;-70
2021/11/13 03:12:49;;;;;;;6.85;2.85;;;;;;;6.37;90.25;100511.53;5023068;28;20053;-70
2021/11/13 03:15:17;;;;;;;4.90;3.17;;;;;;;6.22;90.48;100513.94;5023295;28;20034;-69
2021/11/13 03:17:43;;;;;;;7.13;3.53;;;;;;;6.11;91.30;100504.38;5023783;28;20117;-70
2021/11/13 03:20:12;;;;;;;4.70;2.85;;;;;;;6.20;91.16;100507.06;5023680;28;20050;-69
2021/11/13 03:22:38;;;;;;;9.85;4.55;;;;;;;6.15;91.33;100506.13;5023678;28;20091;-70
2021/11/13 03:25:07;;;;;;;8.13;3.92;;;;;;;6.17;91.27;100511.28;5023494;28;20029;-70
2021/11/13 03:27:34;;;;;;;5.95;3.28;;;;;;;6.15;91.26;100520.75;5022480;28;20041;-69
2021/11/13 03:30:01;;;;;;;5.22;2.85;;;;;;;6.25;91.24;100501.06;5022441;28;20505;-69
2021/11/13 03:32:28;;;;;;;10.30;4.38;;;;;;;6.16;91.23;100507.88;5023343;28;20057;-69
2021/11/13 03:34:53;;;;;;;5.72;2.78;;;;;;;6.16;91.52;100491.53;5023423;28;20046;-69
2021/11/13 03:37:19;;;;;;;11.65;5.38;;;;;;;6.17;91.32;100509.59;5023434;28;20021;-69
2021/11/13 03:39:44;;;;;;;7.57;4.30;;;;;;;6.17;91.37;100503.56;5023190;28;20025;-69
2021/11/13 03:42:10;;;;;;;13.18;5.85;;;;;;;6.12;91.58;100511.25;5023607;28;20032;-69
2021/11/13 03:44:35;;;;;;;8.38;4.78;;;;;;;6.14;91.75;100511.25;5021965;28;20053;-69
2021/11/13 03:47:00;;;;;;;8.63;4.25;;;;;;;6.20;91.65;100512.22;5022916;28;20026;-70
2021/11/13 03:49:26;;;;;;;9.30;5.40;;;;;;;6.16;91.60;100510.44;5023227;28;20378;-69
2021/11/13 03:51:51;;;;;;;7.38;4.82;;;;;;;6.15;92.02;100511.28;5023099;28;20036;-69
2021/11/13 03:54:17;;;;;;;12.77;5.45;;;;;;;6.24;91.58;100512.25;5023238;28;20109;-69
2021/11/13 03:56:42;;;;;;;9.85;4.20;;;;;;;6.34;91.42;100508.94;5023256;28;20037;-71
2021/11/13 03:59:08;;;;;;;7.85;4.25;;;;;;;6.32;91.60;100513.19;5021841;28;20049;-70
2021/11/13 04:01:35;;;;;;;7.60;4.65;;;;;;;6.42;90.73;100516.75;5023278;28;20018;-70
2021/11/13 04:04:01;;;;;;;8.40;2.38;;;;;;;6.51;90.30;100518.53;5023377;28;20045;-71
2021/11/13 04:06:26;;;;;;;7.88;5.03;;;;;;;6.31;91.08;100514.91;5022997;28;20101;-70
2021/11/13 04:08:51;;;;;;;9.93;5.90;;;;;;;6.33;91.33;100530.38;5023170;28;20548;-70
2021/11/13 04:11:17;;;;;;;7.88;5.30;;;;;;;6.37;91.55;100528.72;5021986;28;20021;-70
2021/11/13 04:13:43;;;;;;;12.07;5.47;;;;;;;6.40;91.46;100534.78;5023125;28;20025;-70
2021/11/13 04:16:08;;;;;;;7.93;4.00;;;;;;;6.48;91.62;100528.81;5023244;28;20428;-70
2021/11/13 04:18:34;;;;;;;11.68;4.30;;;;;;;6.57;90.30;100546.97;5023143;28;20037;-70
2021/11/13 04:20:59;;;;;;;9.25;4.20;;;;;;;6.50;90.84;100542.63;5023033;28;20044;-70
2021/11/13 04:23:25;;;;;;;10.25;5.88;;;;;;;6.44;91.20;100538.22;5024554;28;20049;-69
2021/11/13 04:25:50;;;;;;;10.80;4.70;;;;;;;6.54;90.76;100534.03;5027029;28;20528;-70
2021/11/13 04:28:16;;;;;;;8.10;4.80;;;;;;;6.50;91.08;100538.31;5026863;28;20146;-70
2021/11/13 04:30:41;;;;;;;8.75;3.75;;;;;;;6.85;88.52;100533.47;5026522;28;20045;-70
2021/11/13 04:33:07;;;;;;;8.30;3.78;;;;;;;6.82;87.95;100540.34;5026610;28;20101;-71
2021/11/13 04:38:03;;;;;;;4.90;2.75;;;;;;;6.86;87.92;100548.97;5026822;28;20017;-70
2021/11/13 04:40:33;;;;;;;7.13;3.72;;;;;;;6.65;88.47;100532.44;5026491;28;20017;-70
2021/11/13 04:42:58;;;;;;;6.13;3.65;;;;;;;6.64;88.79;100532.44;5026539;28;20053;-70
2021/11/13 04:45:24;;;;;;;6.70;3.05;;;;;;;6.59;89.04;100541.84;5026574;28;20023;-71
2021/11/13 04:47:50;;;;;;;5.53;2.53;;;;;;;6.66;88.67;100531.59;5026556;28;20106;-71
2021/11/13 04:50:19;;;;;;;10.52;3.90;;;;;;;6.54;89.42;100552.09;5026586;28;20025;-71
2021/11/13 04:52:45;;;;;;;7.97;2.58;;;;;;;6.71;88.78;100551.44;5026421;28;20026;-71
2021/11/13 04:55:11;;;;;;;8.18;4.00;;;;;;;6.54;89.52;100549.53;5026292;28;20060;-70
2021/11/13 04:57:37;;;;;;;6.82;3.50;;;;;;;6.48;89.79;100558.06;5024966;28;20030;-70
2021/11/13 05:00:07;;;;;;;10.52;3.38;;;;;;;6.61;88.83;100556.50;5026219;28;20044;-70
2021/11/13 05:02:33;;;;;;;7.07;3.17;;;;;;;6.55;89.29;100551.28;5025946;28;20041;-70
2021/11/13 05:04:58;;;;;;;9.20;4.55;;;;;;;6.44;89.87;100561.44;5026129;28;20037;-70
2021/11/13 05:07:24;;;;;;;8.50;3.97;;;;;;;6.47;89.85;100546.00;5025983;28;20477;-70
2021/11/13 05:09:51;;;;;;;11.10;4.22;;;;;;;6.48;90.08;100568.38;5025886;28;20054;-69
2021/11/13 05:12:17;;;;;;;7.90;3.38;;;;;;;6.49;90.18;100571.81;5026012;28;20032;-70
2021/11/13 05:14:42;;;;;;;7.03;3.83;;;;;;;6.65;89.71;100570.28;5025913;28;20081;-70
2021/11/13 05:17:07;;;;;;;6.53;3.50;;;;;;;6.77;88.46;100569.53;5026149;28;20025;-70
2021/11/13 05:19:33;;;;;;;7.53;3.42;;;;;;;6.70;88.48;100571.19;5026289;28;20479;-69
2021/11/13 05:21:58;;;;;;;5.45;3.45;;;;;;;6.69;88.72;100590.13;5025889;28;20022;-71
2021/11/13 05:24:24;;;;;;;6.80;2.85;;;;;;;6.57;88.95;100565.91;5025727;28;20398;-65
2021/11/13 05:26:49;;;;;;;12.15;4.10;;;;;;;6.55;89.57;100571.91;5025650;28;20053;-66
2021/11/13 05:29:15;;;;;;;7.65;3.75;;;;;;;6.59;89.99;100568.50;5024036;28;20049;-65
2021/11/13 05:31:41;;;;;;;8.23;3.72;;;;;;;6.68;89.28;100573.75;5025630;28;20093;-65
2021/11/13 05:34:06;;;;;;;8.57;3.78;;;;;;;6.61;89.78;100579.72;5025295;28;20096;-65
2021/11/13 05:36:31;;;;;;;7.82;3.03;;;;;;;6.61;89.64;100579.72;5025010;28;20057;-65
2021/11/13 05:38:57;;;;;;;4.88;3.17;;;;;;;6.63;89.79;100579.72;5025415;28;20473;-65
2021/11/13 05:41:22;;;;;;;8.07;4.07;;;;;;;6.67;89.51;100582.34;5025513;28;20025;-65
2021/11/13 05:43:48;;;;;;;4.95;3.15;;;;;;;6.79;88.05;100567.81;5025134;28;20026;-66
2021/11/13 05:46:15;;;;;;;6.65;2.90;;;;;;;6.78;88.10;100564.41;5025387;28;20410;-67
2021/11/13 05:48:41;;;;;;;5.32;3.38;;;;;;;6.64;89.33;100584.03;5025150;28;20087;-67
2021/11/13 05:51:06;;;;;;;8.27;4.22;;;;;;;6.69;89.15;100582.38;5025090;28;20082;-65
2021/11/13 05:53:31;;;;;;;10.68;3.72;;;;;;;6.50;89.77;100569.25;5023621;28;20037;-65
2021/11/13 05:55:57;;;;;;;6.53;3.80;;;;;;;6.72;89.07;100589.25;5023974;28;20056;-65
2021/11/13 05:58:22;;;;;;;8.30;3.78;;;;;;;6.68;89.13;100589.25;5025089;28;20030;-65
2021/11/13 06:00:48;;;;;;;7.38;3.72;;;;;;;6.66;89.73;100602.97;5025038;28;20018;-65
2021/11/13 06:03:13;;;;;;;6.20;3.40;;;;;;;6.70;89.39;100594.41;5025047;28;20018;-65
2021/11/13 06:05:40;;;;;;;7.90;3.35;;;;;;;6.71;89.73;100597.88;5024897;28;20037;-67
2021/11/13 06:08:05;;;;;;;6.40;3.50;;;;;;;6.73;89.65;100591.88;5024882;28;20025;-65
2021/11/13 06:10:31;;;;;;;4.05;2.78;;;;;;;6.78;89.48;100603.09;5024704;28;20022;-66
2021/11/13 06:12:56;;;;;;;5.90;3.55;;;;;;;6.69;89.65;100596.13;5023558;28;20053;-65
2021/11/13 06:15:22;;;;;;;6.10;3.45;;;;;;;6.78;89.22;100612.56;5024582;28;20030;-65
2021/11/13 06:17:48;;;;;;;4.38;2.40;;;;;;;7.05;87.57;100598.19;5024667;28;20038;-65
2021/11/13 06:20:14;;;;;;;4.00;3.28;;;;;;;6.79;88.21;100597.09;5025105;28;20026;-65
2021/11/13 06:22:41;;;;;;;4.55;2.92;;;;;;;6.77;88.44;100593.63;5024812;28;20022;-65
2021/11/13 06:25:08;;;;;;;3.97;2.30;;;;;;;6.74;89.01;100587.56;5024516;28;20049;-67
2021/11/13 06:27:34;;;;;;;4.07;2.08;;;;;;;6.96;87.51;100595.53;5024482;28;20029;-65
2021/11/13 06:29:59;;;;;;;5.72;2.80;;;;;;;6.82;88.13;100606.59;5024502;28;20056;-65
2021/11/13 06:32:25;;;;;;;6.43;2.70;;;;;;;6.84;87.87;100611.78;5024484;28;20351;-65
2021/11/13 06:34:50;;;;;;;4.60;1.50;;;;;;;6.86;88.15;100616.09;5024405;28;20085;-65
2021/11/13 06:37:16;;;;;;;7.03;2.45;;;;;;;6.98;87.06;100602.41;5024365;28;20025;-64
2021/11/13 06:39:41;;;;;;;7.60;2.75;;;;;;;6.86;87.91;100613.50;5024233;28;20094;-67
2021/11/13 06:42:07;;;;;;;2.65;2.30;;;;;;;6.80;88.18;100621.19;5024350;28;20021;-65
2021/11/13 06:44:33;;;;;;;6.35;2.53;;;;;;;6.92;87.58;100625.59;5024104;28;20060;-66
2021/11/13 06:46:58;;;;;;;1.45;1.00;;;;;;;7.09;86.86;100620.63;5023210;28;20160;-67
2021/11/13 06:49:23;;;;;;;7.10;2.22;;;;;;;6.82;88.03;100634.97;5024166;28;20048;-66
2021/11/13 06:51:49;;;;;;;5.25;2.22;;;;;;;7.04;86.99;100632.63;5024260;28;20026;-67
2021/11/13 06:54:14;;;;;;;1.80;1.23;;;;;;;7.08;87.17;100624.03;5024091;28;20026;-67
2021/11/13 06:56:41;;;;;;;6.07;2.25;;;;;;;6.94;87.02;100636.81;5023940;28;20088;-66
2021/11/13 06:59:07;;;;;;;3.40;2.10;;;;;;;6.84;88.26;100641.00;5024086;28;20056;-66
2021/11/13 07:01:32;;;;;;;2.80;1.75;;;;;;;6.89;87.92;100635.88;5022607;28;20026;-66
2021/11/13 07:03:57;;;;;;;1.20;0.98;;;;;;;7.03;87.24;100642.06;5024091;28;20053;-67
2021/11/13 07:06:23;;;;;;;5.65;2.10;;;;;;;6.92;87.19;100647.13;5023713;28;20096;-66
2021/11/13 07:08:49;;;;;;;5.43;1.90;;;;;;;6.97;87.10;100641.13;5023791;28;20324;-69
2021/11/13 07:11:14;;;;;;;4.47;2.30;;;;;;;6.89;87.59;100644.50;5022566;28;20121;-68
2021/11/13 07:13:39;;;;;;;5.30;2.30;;;;;;;6.90;87.95;100655.72;5023896;28;20080;-66
2021/11/13 07:16:06;;;;;;;2.05;1.40;;;;;;;6.93;87.88;100654.00;5023605;28;20056;-67
2021/11/13 07:18:32;;;;;;;1.83;1.33;;;;;;;7.13;86.41;100645.59;5023945;28;20045;-67
2021/11/13 07:21:00;;;;;;;2.13;1.52;;;;;;;6.98;87.36;100646.31;5024111;28;20101;-68
2021/11/13 07:23:25;;;;;;;2.50;1.50;;;;;;;7.06;86.69;100660.16;5023810;28;20262;-66
2021/11/13 07:25:51;;;;;;;2.03;1.70;;;;;;;7.06;86.67;100657.59;5023423;28;20018;-67
2021/11/13 07:28:20;;;;;;;2.33;1.85;;;;;;;7.03;86.92;100659.25;5022663;28;20513;-66
2021/11/13 07:30:48;;;;;;;3.13;2.15;;;;;;;7.00;87.34;100651.47;5022791;28;20089;-66
2021/11/13 07:33:14;;;;;;;1.10;1.00;;;;;;;7.24;86.33;100663.78;5023787;28;20037;-67
2021/11/13 07:35:42;;;;;;;3.85;1.58;;;;;;;7.24;85.76;100657.75;5021926;28;20026;-66
2021/11/13 07:38:08;;;;;;;3.97;2.05;;;;;;;7.04;86.74;100663.59;5023358;28;20036;-65
2021/11/13 07:40:34;;;;;;;1.80;1.20;;;;;;;7.22;86.12;100677.53;5023436;28;20018;-66
2021/11/13 07:43:00;;;;;;;1.88;1.35;;;;;;;7.16;85.58;100666.28;5023193;28;20079;-65
2021/11/13 07:45:29;;;;;;;2.35;1.60;;;;;;;7.11;86.22;100674.84;5023261;28;20033;-67
2021/11/13 07:47:55;;;;;;;2.15;1.40;;;;;;;7.09;86.66;100677.41;5023371;28;20037;-67
2021/11/13 07:50:21;;;;;;;4.35;1.60;;;;;;;7.21;85.75;100678.38;5022079;28;20030;-68
2021/11/13 07:52:47;;;;;;;1.70;1.15;;;;;;;7.28;85.35;100682.75;5023380;28;20098;-68
2021/11/13 07:55:15;;;;;;;4.30;1.95;;;;;;;7.15;85.56;100663.69;5021888;28;20022;-67
2021/11/13 07:57:41;;;;;;;4.00;1.30;;;;;;;7.17;85.87;100683.50;5022113;28;20017;-70
2021/11/13 08:00:09;;;;;;;2.72;1.40;;;;;;;7.15;85.87;100669.72;5027512;28;20014;-68
2021/11/13 08:02:35;;;;;;;1.95;1.40;;;;;;;7.21;85.47;100688.69;5027362;28;20249;-67
2021/11/13 08:05:00;;;;;;;2.63;1.40;;;;;;;7.22;85.39;100667.22;5027292;28;20068;-65
2021/11/13 08:07:26;;;;;;;3.85;1.90;;;;;;;7.29;85.42;100684.47;5027284;28;20026;-64
2021/11/13 08:09:52;;;;;;;3.33;1.80;;;;;;;7.27;85.33;100670.69;5027101;28;20049;-65
2021/11/13 08:12:18;;;;;;;1.92;1.30;;;;;;;7.25;85.33;100693.06;5027482;28;20029;-65
2021/11/13 08:14:43;;;;;;;2.55;1.85;;;;;;;7.23;85.52;100666.34;5027373;28;20022;-66
2021/11/13 08:17:09;;;;;;;2.85;1.30;;;;;;;7.32;85.05;100664.72;5027496;28;20079;-65
2021/11/13 08:19:34;;;;;;;2.25;1.95;;;;;;;7.31;85.00;100677.63;5026185;28;20021;-65
2021/11/13 08:21:59;;;;;;;1.60;1.50;;;;;;;7.36;84.56;100675.97;5027266;28;20025;-65
2021/11/13 08:24:25;;;;;;;2.70;1.60;;;;;;;7.30;84.64;100687.06;5027003;28;20025;-64
2021/11/13 08:26:50;;;;;;;2.72;1.70;;;;;;;7.38;83.74;100669.06;5026870;28;20048;-66
2021/11/13 08:29:15;;;;;;;4.75;1.60;;;;;;;7.30;84.49;100681.06;5026929;28;20078;-66
2021/11/13 08:31:42;;;;;;;3.92;1.60;;;;;;;7.19;85.27;100674.06;5026574;28;20029;-66
2021/11/13 08:34:08;;;;;;;3.83;1.67;;;;;;;7.25;85.32;100675.00;5027075;28;20033;-66
2021/11/13 08:36:33;;;;;;;2.25;1.50;;;;;;;7.27;84.94;100686.19;5026620;28;20025;-66
2021/11/13 08:38:59;;;;;;;5.93;2.00;;;;;;;7.33;85.06;100691.44;5026555;28;20033;-66
2021/11/13 08:41:24;;;;;;;3.58;1.70;;;;;;;7.37;84.62;100692.31;5026522;28;20064;-65
2021/11/13 08:43:50;;;;;;;4.88;2.00;;;;;;;7.25;84.67;100686.16;5026573;28;20109;-66
2021/11/13 08:46:15;;;;;;;3.63;1.88;;;;;;;7.25;85.47;100691.31;5026793;28;20097;-66
2021/11/13 08:48:41;;;;;;;3.92;2.10;;;;;;;7.25;85.72;100691.31;5026561;28;20028;-65
2021/11/13 08:51:06;;;;;;;3.15;1.67;;;;;;;7.30;85.41;100699.16;5026064;28;20029;-68
2021/11/13 08:53:32;;;;;;;1.73;1.13;;;;;;;7.38;85.19;100709.56;5026334;28;20108;-66
2021/11/13 08:55:58;;;;;;;1.67;1.40;;;;;;;7.43;84.24;100710.44;5026041;28;20118;-67
2021/11/13 08:58:23;;;;;;;2.00;1.25;;;;;;;7.49;84.10;100709.66;5026159;28;20018;-65
2021/11/13 09:00:54;;;;;;;3.55;1.95;;;;;;;7.27;85.20;100719.75;5025891;28;20018;-66
2021/11/13 09:03:23;;;;;;;4.28;1.95;;;;;;;7.30;85.05;100718.06;5026282;28;20042;-65
2021/11/13 09:05:48;;;;;;;3.15;2.10;;;;;;;7.32;85.22;100725.84;5026030;28;20014;-66
2021/11/13 09:08:14;;;;;;;4.57;2.08;;;;;;;7.35;84.83;100738.78;5025928;28;20018;-65
2021/11/13 09:10:40;;;;;;;2.70;1.73;;;;;;;7.37;84.75;100743.97;5024702;28;20495;-67
2021/11/13 09:13:09;;;;;;;3.90;2.30;;;;;;;7.38;84.51;100743.13;5025644;28;20022;-66
2021/11/13 09:15:35;;;;;;;4.00;2.08;;;;;;;7.40;84.24;100736.25;5025842;28;20034;-66
2021/11/13 09:18:01;;;;;;;3.10;1.52;;;;;;;7.54;83.58;100741.56;5025724;28;20028;-66
2021/11/13 09:20:27;;;;;;;2.35;1.63;;;;;;;7.46;83.89;100738.88;5025756;28;20066;-65
2021/11/13 09:22:53;;;;;;;3.25;1.90;;;;;;;7.37;84.51;100741.38;5025557;28;20087;-65
2021/11/13 09:25:18;;;;;;;3.78;1.98;;;;;;;7.34;84.76;100731.00;5025270;28;20047;-67
2021/11/13 09:27:45;;;;;;;6.13;2.33;;;;;;;7.35;84.63;100738.78;5024021;28;20057;-66
2021/11/13 09:30:15;;;;;;;6.50;3.00;;;;;;;7.37;85.22;100752.59;5025428;28;20102;-66
2021/11/13 09:32:44;;;;;;;6.93;2.72;;;;;;;7.41;84.90;100740.56;5025730;28;20025;-66
2021/11/13 09:35:11;;;;;;;3.88;2.90;;;;;;;7.40;85.38;100752.63;5025544;28;20078;-67
2021/11/13 09:37:38;;;;;;;3.95;2.10;;;;;;;7.44;84.99;100745.78;5024173;28;20032;-67
2021/11/13 09:40:05;;;;;;;3.88;1.88;;;;;;;7.49;84.71;100744.06;5025443;28;20110;-68
2021/11/13 09:42:31;;;;;;;3.65;2.67;;;;;;;7.65;83.58;100750.25;5025902;28;20024;-68
2021/11/13 09:44:56;;;;;;;4.90;2.35;;;;;;;7.50;84.40;100743.25;5025585;28;20029;-68
2021/11/13 09:47:22;;;;;;;3.60;2.00;;;;;;;7.51;84.73;100746.69;5025421;28;20033;-69
2021/11/13 09:49:47;;;;;;;5.47;2.78;;;;;;;7.57;84.38;100749.34;5025329;28;20045;-70
2021/11/13 09:52:13;;;;;;;3.22;1.75;;;;;;;7.59;84.33;100749.38;5025331;28;20026;-66
2021/11/13 09:54:43;;;;;;;9.07;2.92;;;;;;;7.55;84.85;100751.91;5025138;28;20053;-68
2021/11/13 09:57:09;;;;;;;7.88;2.28;;;;;;;7.66;83.98;100741.69;5025122;28;20037;-67
2021/11/13 09:59:34;;;;;;;4.93;2.33;;;;;;;7.69;83.48;100756.34;5025133;28;20022;-69
2021/11/13 10:02:00;;;;;;;5.55;3.05;;;;;;;7.61;83.99;100751.09;5024859;28;20044;-68
2021/11/13 10:04:25;;;;;;;3.72;1.75;;;;;;;7.64;84.16;100760.59;5025273;28;20114;-68
2021/11/13 10:06:51;;;;;;;3.13;2.15;;;;;;;7.68;83.54;100754.63;5024911;28;20053;-67
2021/11/13 10:09:16;;;;;;;4.38;2.25;;;;;;;7.73;83.22;100767.56;5024648;28;20132;-66
2021/11/13 10:11:48;;;;;;;4.75;2.90;;;;;;;7.64;83.49;100756.28;5056601;28;20045;-67
2021/11/13 10:14:14;;;;;;;6.65;3.10;;;;;;;7.53;84.23;100755.31;5025062;28;20363;-66
2021/11/13 10:16:43;;;;;;;3.63;2.63;;;;;;;7.68;84.01;100763.22;5024682;28;20037;-67
2021/11/13 10:19:16;;;;;;;6.35;2.80;;;;;;;7.74;83.41;100765.00;5024587;28;20022;-67
2021/11/13 10:21:44;;;;;;;9.45;2.67;;;;;;;7.76;82.74;100771.06;5024214;28;20082;-67
2021/11/13 10:24:20;;;;;;;5.18;2.50;;;;;;;7.66;83.74;100771.81;5024286;28;20022;-67
2021/11/13 10:26:50;;;;;;;9.23;3.00;;;;;;;7.79;82.63;100767.63;5024379;28;20112;-68
2021/11/13 10:29:28;;;;;;;6.95;3.00;;;;;;;7.62;83.93;100775.22;5024128;28;20038;-67
2021/11/13 10:31:59;;;;;;;6.15;3.08;;;;;;;7.60;84.59;100770.03;5024099;28;20025;-67
2021/11/13 10:34:36;;;;;;;2.70;1.90;;;;;;;7.80;83.84;100782.28;5023876;28;20033;-67
2021/11/13 10:37:11;;;;;;;5.40;2.35;;;;;;;7.77;83.00;100775.38;5024141;28;20022;-67
2021/11/13 10:39:40;;;;;;;5.30;2.08;;;;;;;7.91;82.59;100780.66;5024117;28;20045;-67
2021/11/13 10:42:12;;;;;;;6.32;2.90;;;;;;;7.75;82.78;100781.34;5022814;28;20022;-66
2021/11/13 10:44:47;;;;;;;7.78;3.03;;;;;;;7.69;83.85;100783.06;5024284;28;20018;-69
2021/11/13 10:47:16;;;;;;;4.88;2.90;;;;;;;7.82;83.16;100788.34;5024000;28;20045;-64
2021/11/13 10:49:43;;;;;;;7.47;2.92;;;;;;;7.73;83.84;100783.09;5023834;28;20030;-66
2021/11/13 10:52:09;;;;;;;5.72;2.80;;;;;;;7.70;84.06;100770.97;5023783;28;20092;-72
2021/11/13 10:54:38;;;;;;;4.88;2.58;;;;;;;7.79;83.81;100783.13;5023424;28;20056;-69
2021/11/13 10:57:06;;;;;;;7.22;2.90;;;;;;;7.76;83.36;100778.81;5023621;28;20061;-67
2021/11/13 10:59:33;;;;;;;6.07;2.70;;;;;;;7.79;83.72;100793.47;5024032;28;20026;-68
2021/11/13 11:02:03;;;;;;;6.72;3.22;;;;;;;7.81;84.15;100786.63;5023713;28;20230;-67
2021/11/13 11:04:32;;;;;;;6.25;3.05;;;;;;;7.89;83.62;100795.28;5024044;28;20099;-67
2021/11/13 11:07:08;;;;;;;4.50;2.42;;;;;;;7.89;83.40;100794.44;5023838;28;20029;-66
2021/11/13 11:09:42;;;;;;;6.07;3.00;;;;;;;7.89;83.48;100800.44;5023701;28;20033;-67
2021/11/13 11:12:14;;;;;;;3.75;2.05;;;;;;;7.96;83.31;100800.50;5023713;28;20030;-69
2021/11/13 11:14:43;;;;;;;8.68;3.20;;;;;;;7.99;82.87;100795.34;5023845;28;20096;-66
2021/11/13 11:17:22;;;;;;;5.53;2.92;;;;;;;7.94;83.09;100790.16;5023968;28;20068;-65
2021/11/13 11:19:50;;;;;;;6.57;3.30;;;;;;;8.03;83.16;100800.59;5023671;28;20025;-65
2021/11/13 11:22:23;;;;;;;6.68;3.53;;;;;;;8.05;83.87;100795.44;5023695;28;20095;-68
2021/11/13 11:24:57;;;;;;;8.93;3.65;;;;;;;8.10;83.79;100798.91;5023533;28;20022;-68
2021/11/13 11:27:30;;;;;;;7.35;3.33;;;;;;;8.18;84.20;100798.97;5023736;28;20073;-69
2021/11/13 11:30:00;;;;;;;11.07;3.40;;;;;;;8.31;83.24;100798.22;5023488;28;20041;-69
2021/11/13 11:32:43;;;;;;;9.55;3.88;;;;;;;8.23;83.64;100807.63;5022994;28;20079;-68